MST,Max TemperatureF,Mean TemperatureF,Min TemperatureF,Max Dew PointF,MeanDew PointF,Min DewpointF,Max Humidity, Mean Humidity, Min Humidity, Max Sea Level PressureIn, Mean Sea Level PressureIn, Min Sea Level PressureIn, Max VisibilityMiles, Mean VisibilityMiles, Min VisibilityMiles, Max Wind SpeedMPH, Mean Wind SpeedMPH, Max Gust SpeedMPH,PrecipitationIn, CloudCover, Events, WindDirDegrees
2012-12-1,82,72,62,70,65,59,94,81,58,29.99,29.95,29.78,15,10,2,10,7,,0.00,2,,350
2012-12-2,84,73,62,68,65,61,100,80,51,30.01,29.97,29.90,15,10,1,14,8,,0.00,0,,338
2012-12-3,82,72,62,66,63,59,94,79,51,30.01,29.96,29.90,15,9,2,14,8,,0.00,0,,319
2012-12-4,84,72,60,66,63,59,94,79,55,30.02,29.94,29.67,10,10,8,13,7,,0.00,0,,337
2012-12-5,82,71,60,70,63,57,94,82,54,30.00,29.93,29.86,12,9,1,10,8,,0.00,0,,27
2012-12-6,82,71,60,70,64,59,94,83,58,29.94,29.88,29.80,12,7,1,10,8,,0.00,3,,1
2012-12-7,82,73,64,70,66,63,94,81,61,29.96,29.85,29.79,12,9,4,12,7,,0.00,5,,352
2012-12-8,80,72,64,68,65,63,94,81,61,29.91,29.86,29.83,15,11,4,10,8,,0.00,6,,347
2012-12-9,82,73,64,68,65,63,94,80,54,29.97,29.91,29.84,15,11,6,13,7,,0.00,4,,328
2012-12-10,82,70,59,66,61,55,94,77,51,29.96,29.89,29.82,15,10,1,18,8,,0.00,3,,322
2012-12-11,80,66,53,61,54,50,94,72,39,29.95,29.90,29.85,15,11,8,13,8,,0.00,1,,319
2012-12-12,82,68,53,59,55,50,94,73,37,29.99,29.94,29.89,15,12,10,10,8,,0.00,2,,338
2012-12-13,80,70,59,63,59,55,94,76,45,30.07,29.98,29.92,15,10,8,9,8,,1.60,6,Rain,333
2012-12-14,78,71,62,64,62,59,94,84,54,30.09,30.01,29.94,15,12,6,12,8,,0.00,7,Rain,353
2012-12-15,80,70,60,63,60,57,94,78,54,30.04,29.96,29.90,15,11,7,17,8,,0.00,6,,317
2012-12-16,75,66,57,63,59,55,94,81,61,29.95,29.92,29.86,15,12,10,14,7,,0.00,6,,299
2012-12-17,86,70,53,59,54,43,94,75,25,29.92,29.86,29.77,15,11,6,9,8,,0.00,1,,343
2012-12-18,77,64,51,66,58,48,94,83,65,29.93,29.87,29.82,15,11,4,12,8,,0.00,0,,39
2012-12-19,78,68,59,64,60,55,94,79,57,29.97,29.91,29.87,14,10,6,15,8,,0.00,3,,314
2012-12-20,80,68,55,64,59,54,94,80,54,29.99,29.92,29.87,15,10,4,14,7,,0.00,2,Fog,318
2012-12-21,80,68,57,64,60,55,94,81,58,30.01,29.96,29.90,15,9,0,12,7,,0.00,2,Fog,317
2012-12-22,80,68,57,64,59,54,94,80,51,30.03,29.96,29.87,14,10,3,12,6,,0.00,5,,294
2012-12-23,80,66,53,64,59,52,94,82,58,29.99,29.91,29.84,12,10,6,10,7,,0.00,4,,305
2012-12-24,78,66,55,66,59,52,94,80,57,29.95,29.87,29.80,14,10,7,10,7,,0.00,3,Fog,354
2012-12-25,78,66,55,66,60,54,94,84,61,29.97,29.87,29.80,12,9,5,13,7,,0.00,4,Fog,306
2012-12-26,82,68,53,63,57,52,100,79,42,29.92,29.86,29.81,14,8,0,12,8,,0.00,3,Fog,332
2012-12-27,77,65,53,61,54,48,94,75,47,29.93,29.89,29.86,15,10,5,12,8,,0.00,5,Fog,337
2012-12-28,78,64,51,57,54,48,94,74,47,29.95,29.90,29.84,15,11,8,12,8,,0.00,3,,333
2012-12-29,78,66,55,61,56,54,94,76,51,29.98,29.91,29.85,15,11,8,12,7,,0.00,7,,355
2012-12-30,80,70,60,64,58,52,88,70,54,30.03,29.95,29.88,14,11,8,13,6,,0.00,8,,292
2012-12-31,69,66,62,63,59,54,100,82,64,30.08,30.01,29.96,15,11,8,14,9,,0.00,8,Rain,342